Brimley, Michigan
Current Conditions -  °F | °C
As of 9:00 AM on Thursday 30 Oct 2014 (Local Time) from CYAM Reporting Station
Overcast Overcast  
Wind Chill: 34°   Ceiling: 1900
Heat Index: 39°   Visibility: 15mi
Dew Point: 34°   Wind: 8mph
Humidity: 81%   Direction: 250°WSW
Pressure: 30.06"   Gusts: NA
Location:  46.41°N, 84.57°W
Report Text: CYAM 301300Z 25007KT 190V270 15SM BKN019 OVC072 04/01 A3006 RMK SC6AC2 SLP188
Loading
Personal Weather Stations






























Interactive Weather Map
Tropical Storm Tracking
New forecast layout! Learn more

10-Day Weather Forecast

Advertisements
Track Severe Weather on mobile